Forside
METAR-TAF:

METAR-TAF

Lufthavne :

Benton Harbor, Michigan, USA

Breddekreds: 42-07-43N, længdekreds: 086-25-42W, højde: 196 m

Aktuelle vejr

Denne rapport blev lavet for 1 time og 6 minutter siden, kl. 20:53 UTC
Vind 6 kt fra nordvest
Temperatur 16°C
Fugtighed 36%
Tryk 1027 hPa
Sigt: 16.1 km
skyfri

METAR: KBEH 192053Z AUTO 31006KT 10SM CLR 16/01 A3033 RMK AO2 SLP274 T01610006 56022

Tid: 17:59 (21:59 UTC)


TAF: fraværende

Vejrobservationer og prognoser fra mere end 4000 lufthavne (METAR og TAF).

De gule og røde prikker repræsenterer de meteorologiske stationer.

Flyt musen over at se navnet på stationen.

Så klik over at se vejr observationer og prognoser.

At skifte det kort: Klik på de grønne knapper med et sort kors for at zoome ind; på den grønne knap med en bindestreg for at zoome ud; eller på de grønne pile for tilstødende kort.


METAR-TAF: